createdAt,value
2018-08-23T00:01:30.618Z,66.96
2018-08-23T00:06:34.792Z,67.40
2018-08-23T00:11:43.697Z,67.66
2018-08-23T00:16:48.464Z,69.28
2018-08-23T00:21:52.108Z,70.20
2018-08-23T00:27:00.763Z,69.98
2018-08-23T00:32:07.767Z,70.46
2018-08-23T00:37:13.030Z,70.44
2018-08-23T00:42:18.272Z,71.54
2018-08-23T00:47:23.621Z,71.14
2018-08-23T00:52:42.112Z,71.26
2018-08-23T00:57:46.814Z,72.24
2018-08-23T01:02:51.358Z,71.52
2018-08-23T01:07:55.333Z,71.65
2018-08-23T01:13:00.837Z,72.23
2018-08-23T01:18:15.755Z,72.69
2018-08-23T01:23:19.360Z,75.24
2018-08-23T01:28:22.870Z,74.97
2018-08-23T01:33:26.917Z,76.16
2018-08-23T01:38:30.444Z,75.39
2018-08-23T01:43:34.042Z,75.20
2018-08-23T01:48:37.651Z,76.43
2018-08-23T01:53:41.195Z,75.90
2018-08-23T01:58:45.862Z,76.41
2018-08-23T02:03:49.821Z,76.27
2018-08-23T02:08:53.800Z,77.28
2018-08-23T02:13:57.416Z,76.63
2018-08-23T02:19:01.075Z,77.18
2018-08-23T02:24:04.647Z,77.73
2018-08-23T02:29:08.182Z,78.22
2018-08-23T02:34:16.018Z,79.40
2018-08-23T02:39:19.782Z,80.01
2018-08-23T02:44:23.350Z,80.16
2018-08-23T02:49:26.870Z,80.88
2018-08-23T02:54:30.673Z,80.81
2018-08-23T02:59:34.496Z,81.27
2018-08-23T03:04:38.073Z,82.03
2018-08-23T03:09:44.083Z,82.90
2018-08-23T03:14:48.172Z,82.47
2018-08-23T03:20:12.565Z,83.34
2018-08-23T03:25:18.232Z,83.89
2018-08-23T03:30:35.280Z,84.40
2018-08-23T03:35:38.882Z,84.85
2018-08-23T03:40:42.433Z,85.03
2018-08-23T03:45:46.352Z,85.51
2018-08-23T03:50:51.813Z,85.57
2018-08-23T03:56:07.425Z,84.91
2018-08-23T04:01:14.270Z,85.98
2018-08-23T04:06:39.025Z,86.44
2018-08-23T04:11:43.398Z,87.08
2018-08-23T04:16:46.977Z,88.25
2018-08-23T04:21:50.848Z,87.82
2018-08-23T04:26:54.351Z,86.89
2018-08-23T04:31:57.944Z,86.60
2018-08-23T04:37:01.596Z,86.49
2018-08-23T04:42:05.667Z,86.38
2018-08-23T04:47:09.996Z,87.02
2018-08-23T04:52:14.126Z,87.28
2018-08-23T04:57:17.688Z,87.48
2018-08-23T05:02:21.341Z,88.61
2018-08-23T05:07:24.908Z,87.57
2018-08-23T05:12:28.595Z,86.27
2018-08-23T05:17:32.091Z,85.13
2018-08-23T05:22:35.652Z,84.99
2018-08-23T05:27:55.402Z,86.88
2018-08-23T05:33:06.003Z,83.74
2018-08-23T05:38:10.245Z,83.09
2018-08-23T05:43:14.533Z,83.36
2018-08-23T05:48:31.982Z,83.21
2018-08-23T05:53:41.306Z,88.47
2018-08-23T05:58:44.764Z,84.90
2018-08-23T06:03:48.406Z,85.68
2018-08-23T06:08:57.340Z,88.60
2018-08-23T06:14:00.930Z,83.01
2018-08-23T06:19:04.404Z,83.94
2018-08-23T06:24:09.347Z,81.91
2018-08-23T06:29:26.201Z,79.11
2018-08-23T06:34:31.393Z,78.08
2018-08-23T06:39:34.874Z,79.08
2018-08-23T06:44:51.549Z,79.14
2018-08-23T06:49:55.597Z,80.51
2018-08-23T06:54:59.249Z,77.51
2018-08-23T07:00:03.371Z,74.22
2018-08-23T07:05:06.965Z,75.95
2018-08-23T07:10:11.919Z,73.85
2018-08-23T07:15:15.521Z,72.61
2018-08-23T07:20:19.107Z,71.20
2018-08-23T07:25:23.033Z,71.88
2018-08-23T07:30:26.568Z,72.42
2018-08-23T07:35:30.119Z,70.80
2018-08-23T07:40:33.777Z,68.51
2018-08-23T07:45:37.534Z,67.82
2018-08-23T07:50:41.085Z,67.92
2018-08-23T07:55:44.630Z,66.06
2018-08-23T08:00:48.164Z,65.92
2018-08-23T08:05:51.920Z,64.88
2018-08-23T08:10:59.614Z,65.34
2018-08-23T08:16:13.985Z,64.60
2018-08-23T08:21:18.425Z,64.04
2018-08-23T08:26:22.165Z,62.69
2018-08-23T08:31:25.754Z,63.01
2018-08-23T08:36:31.269Z,62.57
2018-08-23T08:41:37.449Z,62.06
2018-08-23T08:46:41.681Z,63.14
2018-08-23T08:51:45.486Z,61.76
2018-08-23T08:56:49.206Z,61.16
2018-08-23T09:01:53.261Z,59.25
2018-08-23T09:06:56.866Z,58.85
2018-08-23T09:12:03.743Z,57.86
2018-08-23T09:17:23.983Z,58.14
2018-08-23T09:22:27.693Z,56.65
2018-08-23T09:27:31.212Z,57.28
2018-08-23T09:32:35.359Z,57.10
2018-08-23T09:37:39.755Z,56.18
2018-08-23T09:42:43.255Z,55.85
2018-08-23T09:47:46.945Z,55.23
2018-08-23T09:52:51.475Z,53.70
2018-08-23T09:57:55.073Z,52.08
2018-08-23T10:03:04.891Z,53.08
2018-08-23T10:08:14.292Z,52.50
2018-08-23T10:13:23.330Z,53.66
2018-08-23T10:18:32.633Z,52.02
2018-08-23T10:23:36.203Z,51.06
2018-08-23T10:28:45.233Z,50.54
2018-08-23T10:33:48.918Z,49.55
2018-08-23T10:38:52.844Z,47.77
2018-08-23T10:43:57.174Z,47.16
2018-08-23T10:49:01.105Z,46.33
2018-08-23T10:54:04.650Z,47.09
2018-08-23T10:59:08.596Z,46.87
2018-08-23T11:04:12.126Z,44.28
2018-08-23T11:10:20.885Z,44.79
2018-08-23T11:15:25.425Z,44.33
2018-08-23T11:20:31.539Z,44.34
2018-08-23T11:25:35.113Z,43.15
2018-08-23T11:30:38.797Z,44.27
2018-08-23T11:35:42.371Z,44.20
2018-08-23T11:40:46.037Z,44.07
2018-08-23T11:45:54.884Z,43.56
2018-08-23T11:50:59.036Z,44.32
2018-08-23T11:56:02.797Z,42.77
2018-08-23T12:01:11.672Z,43.46
2018-08-23T12:06:16.515Z,41.70
2018-08-23T12:11:20.082Z,42.06
2018-08-23T12:16:23.633Z,43.65
2018-08-23T12:21:27.232Z,41.93
2018-08-23T12:26:31.032Z,42.18
2018-08-23T12:31:34.569Z,42.04
2018-08-23T12:36:44.009Z,41.88
2018-08-23T12:41:53.064Z,42.17
2018-08-23T12:47:02.134Z,41.56
2018-08-23T12:52:05.888Z,41.68
2018-08-23T12:57:09.581Z,40.56
2018-08-23T13:02:13.295Z,40.20
2018-08-23T13:07:16.833Z,41.33
2018-08-23T13:12:20.534Z,40.54
2018-08-23T13:17:24.361Z,40.44
2018-08-23T13:22:33.470Z,39.80
2018-08-23T13:27:37.184Z,41.04
2018-08-23T13:32:57.346Z,40.51
2018-08-23T13:38:00.910Z,39.55
2018-08-23T13:43:04.509Z,40.24
2018-08-23T13:48:08.344Z,40.87
2018-08-23T13:53:12.080Z,40.55
2018-08-23T13:58:15.672Z,40.85
2018-08-23T14:03:19.293Z,41.74
2018-08-23T14:08:22.828Z,41.40
2018-08-23T14:13:26.495Z,40.43
2018-08-23T14:18:30.029Z,41.10
2018-08-23T14:23:33.619Z,40.11
2018-08-23T14:28:37.623Z,40.64
2018-08-23T14:33:41.091Z,40.26
2018-08-23T14:38:44.675Z,40.10
2018-08-23T14:43:48.245Z,41.49
2018-08-23T14:48:52.307Z,40.49
2018-08-23T14:53:56.056Z,41.14
2018-08-23T14:58:59.610Z,41.21
2018-08-23T15:04:03.789Z,41.08
2018-08-23T15:09:08.501Z,39.83
2018-08-23T15:14:12.156Z,39.92
2018-08-23T15:19:15.698Z,40.78
2018-08-23T15:24:19.347Z,39.01
2018-08-23T15:29:22.888Z,38.38
2018-08-23T15:34:26.572Z,41.05
2018-08-23T15:39:30.191Z,39.08
2018-08-23T15:44:33.688Z,39.34
2018-08-23T15:49:37.254Z,38.68
2018-08-23T15:54:40.835Z,40.38
2018-08-23T15:59:44.382Z,40.45
2018-08-23T16:04:48.018Z,40.79
2018-08-23T16:09:51.566Z,40.30
2018-08-23T16:14:55.037Z,40.70
2018-08-23T16:20:03.909Z,40.34
2018-08-23T16:25:07.517Z,41.41
2018-08-23T16:30:14.128Z,41.09
2018-08-23T16:35:17.674Z,41.22
2018-08-23T16:40:26.722Z,39.80
2018-08-23T16:45:30.623Z,39.34
2018-08-23T16:50:34.177Z,38.80
2018-08-23T16:55:37.852Z,39.79
2018-08-23T17:00:41.634Z,39.25
2018-08-23T17:05:45.156Z,39.04
2018-08-23T17:10:48.830Z,39.58
2018-08-23T17:15:57.674Z,39.45
2018-08-23T17:21:01.391Z,39.95
2018-08-23T17:26:04.877Z,40.09
2018-08-23T17:31:08.421Z,39.57
2018-08-23T17:36:11.939Z,39.52
2018-08-23T17:41:18.190Z,40.26
2018-08-23T17:46:21.887Z,40.18
2018-08-23T17:51:25.955Z,40.30
2018-08-23T17:56:29.825Z,40.32
2018-08-23T18:01:33.411Z,43.47
2018-08-23T18:06:37.539Z,44.34
2018-08-23T18:11:41.186Z,46.08
2018-08-23T18:16:50.099Z,47.31
2018-08-23T18:21:53.864Z,47.84
2018-08-23T18:26:58.010Z,48.24
2018-08-23T18:32:01.644Z,48.56
2018-08-23T18:37:05.403Z,49.38
2018-08-23T18:42:08.945Z,51.46
2018-08-23T18:47:12.789Z,52.33
2018-08-23T18:52:16.345Z,53.12
2018-08-23T18:57:19.847Z,53.75
2018-08-23T19:02:24.086Z,54.52
2018-08-23T19:07:33.136Z,54.33
2018-08-23T19:12:36.785Z,54.77
2018-08-23T19:17:42.152Z,55.89
2018-08-23T19:22:45.914Z,55.96
2018-08-23T19:27:49.889Z,56.27
2018-08-23T19:32:54.585Z,57.28
2018-08-23T19:37:58.638Z,57.76
2018-08-23T19:43:03.305Z,58.26
2018-08-23T19:48:06.860Z,57.61
2018-08-23T19:53:10.441Z,58.41
2018-08-23T19:58:14.000Z,59.22
2018-08-23T20:03:17.593Z,58.97
2018-08-23T20:08:21.601Z,59.92
2018-08-23T20:13:25.220Z,59.51
2018-08-23T20:18:29.182Z,59.72
2018-08-23T20:23:32.721Z,59.87
2018-08-23T20:28:36.318Z,60.46
2018-08-23T20:33:39.936Z,61.17
2018-08-23T20:38:43.437Z,60.79
2018-08-23T20:43:47.003Z,61.64
2018-08-23T20:48:51.543Z,60.78
2018-08-23T20:53:55.090Z,61.66
2018-08-23T20:58:58.861Z,61.72
2018-08-23T21:04:02.478Z,62.29
2018-08-23T21:09:09.212Z,62.30
2018-08-23T21:14:12.899Z,63.60
2018-08-23T21:19:16.515Z,63.46
2018-08-23T21:24:20.165Z,64.13
2018-08-23T21:29:23.716Z,64.47
2018-08-23T21:34:27.289Z,64.58
2018-08-23T21:39:30.802Z,65.41
2018-08-23T21:44:34.439Z,65.30
2018-08-23T21:49:39.380Z,65.38
2018-08-23T21:54:43.699Z,65.39
2018-08-23T21:59:47.574Z,65.43
2018-08-23T22:04:52.705Z,65.99
2018-08-23T22:09:56.259Z,65.83
2018-08-23T22:14:59.774Z,66.15
2018-08-23T22:20:04.046Z,66.56
2018-08-23T22:25:07.955Z,66.84
2018-08-23T22:30:23.459Z,67.08
2018-08-23T22:35:27.770Z,67.82
2018-08-23T22:40:31.380Z,67.48
2018-08-23T22:45:35.779Z,67.09
2018-08-23T22:50:39.371Z,68.34
2018-08-23T22:55:42.962Z,67.92
2018-08-23T23:00:46.647Z,67.90
2018-08-23T23:05:50.214Z,67.83
2018-08-23T23:10:54.507Z,68.47
2018-08-23T23:15:58.038Z,68.86
2018-08-23T23:21:02.193Z,67.88
2018-08-23T23:26:06.176Z,68.62
2018-08-23T23:31:09.775Z,67.59
2018-08-23T23:36:14.171Z,67.69
2018-08-23T23:41:17.713Z,68.22
2018-08-23T23:46:21.452Z,67.65
2018-08-23T23:51:24.984Z,67.30
2018-08-23T23:56:28.674Z,67.38
